Time;durP1;ratioP1;P1;durP2;ratioP2;P2;SDS_P1;SDS_P2;PMS_P1;PMS_P2;Temp;Humidity;BMP_temperature;BMP_pressure;BME280_temperature;BME280_humidity;BME280_pressure;Samples;Min_cycle;Max_cycle;Signal;HPM_P1;HPM_P2
2022/04/18 00:00:07;;;;;;;0.60;0.15;;;;;;;20.25;40.83;100850.78;4983928;28;20378;-63
2022/04/18 00:02:33;;;;;;;1.23;0.30;;;;;;;20.25;40.80;100842.03;4980124;28;20433;-63
2022/04/18 00:04:59;;;;;;;0.50;0.20;;;;;;;20.25;40.75;100842.84;4986687;28;20018;-62
2022/04/18 00:07:24;;;;;;;3.08;0.30;;;;;;;20.24;40.63;100843.84;4985154;28;20042;-61
2022/04/18 00:09:50;;;;;;;2.90;0.40;;;;;;;20.23;40.82;100841.41;4985055;28;20018;-63
2022/04/18 00:12:15;;;;;;;0.98;0.20;;;;;;;20.22;40.49;100837.94;4983730;28;20128;-61
2022/04/18 00:14:41;;;;;;;0.68;0.20;;;;;;;20.21;40.64;100836.31;4982670;28;20038;-61
2022/04/18 00:17:09;;;;;;;1.00;0.20;;;;;;;20.20;40.42;100838.13;4982309;28;20113;-62
2022/04/18 00:19:36;;;;;;;0.77;0.20;;;;;;;20.21;40.58;100831.84;4979130;28;20030;-61
2022/04/18 00:22:02;;;;;;;4.00;0.38;;;;;;;20.21;40.80;100831.84;4984073;28;20038;-61
2022/04/18 00:24:28;;;;;;;1.25;0.30;;;;;;;20.22;40.59;100832.66;4984789;28;20153;-62
2022/04/18 00:26:53;;;;;;;0.50;0.20;;;;;;;20.24;40.59;100817.41;4984596;28;20564;-61
2022/04/18 00:29:19;;;;;;;1.02;0.22;;;;;;;20.24;40.85;100827.16;4984049;28;20149;-61
2022/04/18 00:31:44;;;;;;;1.63;0.30;;;;;;;20.25;40.74;100820.84;4984029;28;20034;-63
2022/04/18 00:34:10;;;;;;;0.60;0.20;;;;;;;20.24;40.67;100814.75;4984733;28;20396;-61
2022/04/18 00:36:35;;;;;;;1.25;0.60;;;;;;;20.24;40.62;100808.66;4985131;28;20030;-61
2022/04/18 00:39:00;;;;;;;0.82;0.20;;;;;;;20.25;40.29;100815.56;4985947;28;20083;-62
2022/04/18 00:41:26;;;;;;;0.73;0.28;;;;;;;20.25;40.21;100807.63;4981232;28;20490;-61
2022/04/18 00:43:52;;;;;;;0.65;0.30;;;;;;;20.25;40.08;100811.09;4982334;28;20037;-61
2022/04/18 00:46:19;;;;;;;1.13;0.20;;;;;;;20.25;40.29;100799.69;4984815;28;20440;-61
2022/04/18 00:48:46;;;;;;;0.50;0.20;;;;;;;20.24;40.21;100798.06;4980879;28;20030;-62
2022/04/18 00:51:14;;;;;;;0.80;0.20;;;;;;;20.23;40.12;100794.59;4976561;28;20042;-61
2022/04/18 00:53:41;;;;;;;0.73;0.40;;;;;;;20.23;40.21;100794.59;4985227;28;20054;-62
2022/04/18 00:56:08;;;;;;;1.70;0.30;;;;;;;20.22;40.33;100792.97;4982359;28;20088;-63
2022/04/18 00:58:35;;;;;;;0.77;0.30;;;;;;;20.21;40.00;100780.75;4981682;28;20042;-62
2022/04/18 01:01:01;;;;;;;0.90;0.20;;;;;;;20.21;39.83;100778.09;4982046;28;20053;-61
2022/04/18 01:03:30;;;;;;;0.60;0.20;;;;;;;20.20;40.07;100774.66;4983505;28;20069;-61
2022/04/18 01:05:57;;;;;;;0.70;0.20;;;;;;;20.19;39.71;100762.44;4980675;28;20034;-61
2022/04/18 01:08:25;;;;;;;1.45;0.20;;;;;;;20.18;39.56;100762.63;4977859;28;20037;-61
2022/04/18 01:10:51;;;;;;;0.82;0.30;;;;;;;20.17;39.74;100761.81;4979218;28;20031;-61
2022/04/18 01:13:16;;;;;;;0.50;0.20;;;;;;;20.16;39.80;100760.19;4982636;28;20050;-62
2022/04/18 01:15:42;;;;;;;0.75;0.30;;;;;;;20.15;40.15;100766.50;4978209;28;20340;-59
2022/04/18 01:18:07;;;;;;;1.48;0.28;;;;;;;20.14;39.81;100750.81;4983124;28;20175;-61
2022/04/18 01:20:34;;;;;;;0.70;0.30;;;;;;;20.13;39.94;100744.72;4982014;28;20550;-61
2022/04/18 01:23:01;;;;;;;0.50;0.20;;;;;;;20.12;40.20;100745.72;4985697;28;20382;-61
2022/04/18 01:30:54;;;;;;;0.47;0.10;;;;;;;20.09;40.10;100732.09;4982422;28;20045;-61
2022/04/18 01:33:20;;;;;;;1.27;0.25;;;;;;;20.09;40.37;100738.19;4981789;28;20035;-62
2022/04/18 01:35:45;;;;;;;0.65;0.20;;;;;;;20.08;40.44;100736.56;4984639;28;20120;-61
2022/04/18 01:38:10;;;;;;;0.90;0.30;;;;;;;20.07;40.38;100732.28;4984119;28;20038;-61
2022/04/18 01:40:36;;;;;;;0.52;0.20;;;;;;;20.07;40.46;100729.66;4981669;28;20084;-61
2022/04/18 01:43:02;;;;;;;0.93;0.20;;;;;;;20.07;40.53;100728.81;4982684;28;20049;-62
2022/04/18 01:45:27;;;;;;;1.70;0.20;;;;;;;20.06;40.37;100733.31;4988351;28;20045;-62
2022/04/18 01:47:52;;;;;;;1.10;0.20;;;;;;;20.07;40.45;100729.66;4985511;28;20215;-61
2022/04/18 01:50:18;;;;;;;0.65;0.28;;;;;;;20.06;40.36;100725.38;4988007;28;20061;-62
2022/04/18 01:52:43;;;;;;;1.95;0.20;;;;;;;20.08;40.60;100727.81;4984195;28;20037;-62
2022/04/18 01:55:09;;;;;;;0.70;0.20;;;;;;;20.06;40.52;100720.06;4987120;28;20046;-61
2022/04/18 01:57:35;;;;;;;0.82;0.20;;;;;;;20.06;40.40;100719.25;4990674;28;20296;-61
2022/04/18 02:00:00;;;;;;;1.60;0.20;;;;;;;20.06;40.47;100717.44;4986282;28;20045;-61
2022/04/18 02:02:26;;;;;;;0.95;0.20;;;;;;;20.06;40.70;100714.78;4985682;28;20107;-61
2022/04/18 02:04:51;;;;;;;0.60;0.20;;;;;;;20.06;40.42;100717.44;4987184;28;20088;-61
2022/04/18 02:07:16;;;;;;;0.40;0.20;;;;;;;20.05;40.63;100720.28;4981639;28;20527;-61
2022/04/18 02:09:42;;;;;;;1.00;0.30;;;;;;;20.05;40.76;100721.09;4988461;28;20034;-62
2022/04/18 02:12:08;;;;;;;0.75;0.20;;;;;;;20.05;40.66;100725.56;5001014;22;20085;-47
2022/04/18 02:14:33;;;;;;;1.10;0.30;;;;;;;20.04;40.61;100714.16;4990080;28;20038;-46
2022/04/18 02:16:58;;;;;;;0.88;0.20;;;;;;;20.06;40.46;100711.31;4990480;28;20029;-47
2022/04/18 02:19:24;;;;;;;0.60;0.20;;;;;;;20.06;40.58;100717.44;4990548;28;20026;-48
2022/04/18 02:21:49;;;;;;;0.50;0.20;;;;;;;20.06;40.39;100706.84;4990225;28;20096;-49
2022/04/18 02:24:15;;;;;;;0.50;0.25;;;;;;;20.06;40.46;100706.84;4989909;28;20030;-46
2022/04/18 02:26:40;;;;;;;0.57;0.20;;;;;;;20.07;40.41;100707.66;4990215;28;20030;-45
2022/04/18 02:29:06;;;;;;;0.52;0.20;;;;;;;20.07;40.31;100697.09;4990497;28;20501;-46
2022/04/18 02:31:31;;;;;;;0.45;0.20;;;;;;;20.07;40.46;100695.25;4989813;28;20085;-46
2022/04/18 02:33:57;;;;;;;1.77;0.30;;;;;;;20.08;40.49;100696.06;4990391;28;20089;-46
2022/04/18 02:36:22;;;;;;;0.73;0.20;;;;;;;20.07;40.18;100689.16;4990126;28;20037;-47
2022/04/18 02:38:47;;;;;;;0.40;0.20;;;;;;;20.08;40.36;100696.06;4990301;28;20041;-47
2022/04/18 02:41:13;;;;;;;0.60;0.20;;;;;;;20.06;40.25;100690.97;4989902;28;20026;-48
2022/04/18 02:43:38;;;;;;;0.98;0.30;;;;;;;20.04;40.44;100689.56;4989733;28;20048;-45
2022/04/18 02:46:03;;;;;;;0.30;0.20;;;;;;;20.04;40.20;100698.31;4989950;28;20109;-48
2022/04/18 02:48:30;;;;;;;0.50;0.20;;;;;;;20.03;40.10;100683.44;4989627;28;20065;-47
2022/04/18 02:50:55;;;;;;;1.52;0.30;;;;;;;20.03;40.21;100683.44;4989676;28;20089;-49
2022/04/18 02:53:20;;;;;;;0.43;0.20;;;;;;;20.03;40.17;100686.09;4989212;28;20450;-47
2022/04/18 02:55:46;;;;;;;0.60;0.20;;;;;;;20.02;40.23;100679.19;4989544;28;20527;-45
2022/04/18 02:58:11;;;;;;;0.38;0.20;;;;;;;20.03;40.17;100680.81;4989366;28;20444;-47
2022/04/18 03:00:37;;;;;;;0.47;0.20;;;;;;;20.02;40.40;100679.19;4989134;28;20038;-45
2022/04/18 03:03:02;;;;;;;0.57;0.30;;;;;;;20.02;40.26;100684.47;4988988;28;20037;-49
2022/04/18 03:05:28;;;;;;;0.50;0.20;;;;;;;20.00;40.24;100675.09;4989498;28;20069;-49
2022/04/18 03:07:53;;;;;;;0.20;0.10;;;;;;;20.00;40.21;100677.75;4989070;28;20105;-48
2022/04/18 03:11:02;;;;;;;1.42;0.20;;;;;;;20.00;40.04;100680.38;4988926;28;20069;-50
2022/04/18 03:13:04;;;;;;;0.63;0.20;;;;;;;19.97;40.20;100671.03;4988940;28;20057;-46
2022/04/18 03:15:30;;;;;;;0.50;0.20;;;;;;;19.96;40.07;100671.22;4989332;28;20030;-46
2022/04/18 03:17:56;;;;;;;1.33;0.30;;;;;;;19.95;40.18;100666.94;4989510;28;20030;-47
2022/04/18 03:20:21;;;;;;;0.88;0.43;;;;;;;19.95;40.21;100666.94;4986958;28;20097;-47
2022/04/18 03:22:46;;;;;;;1.02;0.50;;;;;;;19.94;40.11;100660.84;4989036;28;20038;-45
2022/04/18 03:25:12;;;;;;;1.38;0.50;;;;;;;19.93;40.08;100661.88;4988950;28;20085;-46
2022/04/18 03:27:37;;;;;;;0.88;0.45;;;;;;;19.94;40.01;100660.03;4988910;28;20030;-47
2022/04/18 03:30:03;;;;;;;0.95;0.40;;;;;;;19.93;39.92;100661.03;4988519;28;20033;-49
2022/04/18 03:32:28;;;;;;;0.95;0.70;;;;;;;19.92;39.92;100654.13;4988706;28;20038;-46
2022/04/18 03:34:53;;;;;;;1.40;0.70;;;;;;;19.90;39.99;100654.34;4989130;28;20014;-46
2022/04/18 03:40:03;;;;;;;1.25;0.50;;;;;;;19.88;40.18;100657.16;4983806;28;20169;-47
2022/04/18 03:42:32;;;;;;;1.73;0.68;;;;;;;19.88;40.12;100649.25;4988194;28;20129;-51
2022/04/18 03:45:05;;;;;;;3.00;0.82;;;;;;;19.88;40.01;100651.06;4988950;28;20027;-47
2022/04/18 03:47:31;;;;;;;1.42;0.70;;;;;;;19.88;39.89;100651.06;4988573;28;20042;-45
2022/04/18 03:49:57;;;;;;;1.60;0.60;;;;;;;19.87;40.11;100646.78;4988578;28;20131;-46
2022/04/18 03:52:23;;;;;;;1.38;0.52;;;;;;;19.88;40.05;100648.44;4987943;28;20031;-47
2022/04/18 03:54:49;;;;;;;0.85;0.50;;;;;;;19.87;39.93;100644.16;4986989;28;20551;-45
2022/04/18 03:57:15;;;;;;;1.20;0.55;;;;;;;19.87;39.67;100641.50;4988493;28;20034;-47
2022/04/18 03:59:41;;;;;;;0.60;0.32;;;;;;;19.87;39.65;100649.44;4987475;28;20116;-46
2022/04/18 04:02:06;;;;;;;1.38;0.65;;;;;;;19.87;39.95;100649.44;4984858;28;20037;-45
2022/04/18 04:04:32;;;;;;;1.83;0.40;;;;;;;19.87;39.87;100647.63;4986582;28;20030;-46
2022/04/18 04:06:58;;;;;;;1.10;0.60;;;;;;;19.86;39.74;100645.97;4986535;28;20038;-45
2022/04/18 04:09:23;;;;;;;1.27;0.60;;;;;;;19.86;39.91;100642.53;4987756;28;20083;-45
2022/04/18 04:11:49;;;;;;;1.67;0.38;;;;;;;19.87;39.75;100652.09;4986636;28;20469;-47
2022/04/18 04:14:14;;;;;;;2.17;0.50;;;;;;;19.87;39.56;100644.16;4987203;28;20049;-47
2022/04/18 04:16:39;;;;;;;1.13;0.50;;;;;;;19.87;39.73;100644.97;4987337;28;20034;-45
2022/04/18 04:19:05;;;;;;;1.10;0.50;;;;;;;19.88;39.77;100651.06;4987464;28;20148;-45
2022/04/18 04:21:31;;;;;;;1.75;0.65;;;;;;;19.88;39.44;100648.44;4986959;28;20477;-48
2022/04/18 04:23:56;;;;;;;0.80;0.50;;;;;;;19.89;39.60;100653.50;4986890;28;20027;-46
2022/04/18 04:26:22;;;;;;;1.10;0.50;;;;;;;19.89;39.43;100647.41;4986906;28;20084;-46
2022/04/18 04:28:48;;;;;;;1.15;0.60;;;;;;;19.90;39.34;100646.41;4986932;28;20041;-46
2022/04/18 04:31:13;;;;;;;1.05;0.50;;;;;;;19.89;39.18;100642.94;4986724;28;20034;-46
2022/04/18 04:33:39;;;;;;;0.85;0.40;;;;;;;19.89;39.32;100636.84;4987054;28;20031;-47
2022/04/18 04:36:04;;;;;;;0.95;0.50;;;;;;;19.89;39.16;100640.28;4985779;28;20045;-46
2022/04/18 04:38:29;;;;;;;0.95;0.40;;;;;;;19.89;39.38;100636.84;4986022;28;20473;-46
2022/04/18 04:40:57;;;;;;;1.80;0.50;;;;;;;19.86;39.39;100627.47;4986564;28;20030;-47
2022/04/18 04:43:28;;;;;;;1.17;0.77;;;;;;;19.86;39.38;100631.94;4986605;28;20565;-46
2022/04/18 04:46:00;;;;;;;0.70;0.40;;;;;;;19.84;39.32;100632.19;4986990;28;20084;-48
2022/04/18 04:48:26;;;;;;;1.67;0.52;;;;;;;19.85;39.54;100631.13;4986561;28;20181;-45
2022/04/18 04:50:51;;;;;;;1.00;0.60;;;;;;;19.84;39.40;100626.06;4987061;28;20106;-45
2022/04/18 04:53:17;;;;;;;1.40;0.68;;;;;;;19.84;39.34;100629.53;5001132;28;20336;-48
2022/04/18 04:55:42;;;;;;;1.23;0.80;;;;;;;19.85;39.35;100632.97;4986832;28;20434;-46
2022/04/18 04:58:09;;;;;;;1.20;0.43;;;;;;;19.85;39.43;100625.03;4986657;28;20374;-47
2022/04/18 05:00:38;;;;;;;1.55;0.50;;;;;;;19.83;39.40;100633.19;4990966;28;20296;-47
2022/04/18 05:03:05;;;;;;;1.10;0.60;;;;;;;19.84;39.36;100634.00;4984664;28;20025;-45
2022/04/18 05:05:31;;;;;;;0.85;0.40;;;;;;;19.84;39.13;100639.28;4985484;28;20022;-46
2022/04/18 05:07:56;;;;;;;0.70;0.40;;;;;;;19.82;39.22;100628.91;4986148;28;20052;-48
2022/04/18 05:10:22;;;;;;;0.90;0.50;;;;;;;19.82;39.37;100636.03;4985540;28;20046;-47
2022/04/18 05:12:47;;;;;;;0.90;0.50;;;;;;;19.81;39.27;100629.94;4984369;28;20095;-50
2022/04/18 05:15:13;;;;;;;1.05;0.75;;;;;;;19.80;39.30;100633.59;4986260;28;20026;-45
2022/04/18 05:17:38;;;;;;;0.73;0.50;;;;;;;19.80;39.58;100627.50;4985311;28;20330;-47
2022/04/18 05:20:04;;;;;;;1.25;0.70;;;;;;;19.79;39.29;100624.03;4984128;28;20158;-46
2022/04/18 05:22:31;;;;;;;1.10;0.40;;;;;;;19.79;39.26;100620.56;4987446;28;20057;-50
2022/04/18 05:24:57;;;;;;;1.23;0.40;;;;;;;19.80;39.48;100643.34;4988956;28;20022;-46
2022/04/18 05:27:23;;;;;;;0.90;0.40;;;;;;;19.78;39.44;100642.75;4985322;28;20040;-44
2022/04/18 05:29:49;;;;;;;0.88;0.50;;;;;;;19.78;39.45;100642.75;4984922;28;20038;-47
2022/04/18 05:32:14;;;;;;;0.90;0.40;;;;;;;19.78;39.48;100640.09;4987412;28;20437;-48
2022/04/18 05:34:39;;;;;;;1.10;0.40;;;;;;;19.76;39.26;100631.53;4987556;28;20066;-48
2022/04/18 05:37:05;;;;;;;1.48;0.50;;;;;;;19.76;39.22;100636.84;4985273;28;20034;-48
2022/04/18 05:39:30;;;;;;;0.88;0.50;;;;;;;19.74;39.32;100618.53;4986693;28;20038;-46
2022/04/18 05:41:56;;;;;;;1.40;0.52;;;;;;;19.75;39.29;100641.31;4990722;28;20058;-49
2022/04/18 05:44:25;;;;;;;1.00;0.50;;;;;;;19.73;39.34;100630.13;4986266;28;20455;-45
2022/04/18 05:46:50;;;;;;;1.13;0.45;;;;;;;19.74;39.49;100625.66;4994112;28;20210;-48
2022/04/18 05:49:16;;;;;;;1.50;0.40;;;;;;;19.75;39.49;100629.91;4990286;28;20153;-44
2022/04/18 05:51:42;;;;;;;0.98;0.40;;;;;;;19.75;39.39;100635.22;4985354;28;20085;-44
2022/04/18 05:54:08;;;;;;;1.25;0.50;;;;;;;19.74;39.42;100633.56;4986341;28;20061;-46
2022/04/18 05:56:34;;;;;;;1.15;0.50;;;;;;;19.74;39.33;100636.22;4991413;28;20437;-50
2022/04/18 05:58:59;;;;;;;2.35;0.55;;;;;;;19.76;39.46;100636.84;4986736;28;20026;-45
2022/04/18 06:01:24;;;;;;;1.02;0.30;;;;;;;19.74;39.34;100634.38;4988170;28;20641;-46
2022/04/18 06:03:50;;;;;;;0.98;0.50;;;;;;;19.73;39.33;100635.41;4984524;28;20081;-50
2022/04/18 06:06:15;;;;;;;1.23;0.40;;;;;;;19.74;39.50;100641.50;4987921;28;20440;-45
2022/04/18 06:08:41;;;;;;;1.13;0.40;;;;;;;19.74;39.80;100641.50;4985601;28;20042;-47
2022/04/18 06:11:07;;;;;;;0.90;0.40;;;;;;;19.74;39.52;100649.44;4986486;28;20026;-46
2022/04/18 06:13:33;;;;;;;1.08;0.50;;;;;;;19.74;39.38;100644.16;4986888;28;20078;-49
2022/04/18 06:15:58;;;;;;;1.80;0.40;;;;;;;19.75;39.48;100646.59;4988055;28;20042;-46
2022/04/18 06:18:24;;;;;;;0.98;0.40;;;;;;;19.75;39.19;100636.03;4989861;28;20097;-46
2022/04/18 06:20:49;;;;;;;0.73;0.45;;;;;;;19.77;39.35;100638.47;4986581;28;20032;-52
2022/04/18 06:23:16;;;;;;;1.17;0.50;;;;;;;19.77;39.60;100643.75;4984979;28;20041;-50
2022/04/18 06:25:45;;;;;;;0.77;0.30;;;;;;;19.78;39.55;100635.63;4986908;28;20035;-45
2022/04/18 06:28:12;;;;;;;0.98;0.30;;;;;;;19.79;39.77;100636.44;4984702;28;20042;-46
2022/04/18 06:30:38;;;;;;;0.70;0.30;;;;;;;19.79;39.90;100633.78;4989412;28;20381;-45
2022/04/18 06:33:04;;;;;;;1.95;0.40;;;;;;;19.80;39.82;100633.59;4998428;28;20040;-47
2022/04/18 06:35:29;;;;;;;1.60;0.50;;;;;;;19.80;39.77;100630.13;4994948;28;20085;-46
2022/04/18 06:37:55;;;;;;;1.02;0.50;;;;;;;19.80;39.72;100635.41;4988908;28;20537;-47
2022/04/18 06:40:20;;;;;;;0.85;0.40;;;;;;;19.80;39.98;100632.78;4992779;28;20049;-46
2022/04/18 06:42:45;;;;;;;0.80;0.32;;;;;;;19.78;40.07;100630.34;4987300;28;20472;-47
2022/04/18 06:45:11;;;;;;;1.45;0.40;;;;;;;19.78;39.75;100626.88;4987364;28;20497;-46
2022/04/18 06:47:36;;;;;;;1.60;0.40;;;;;;;19.77;39.73;100634.00;4988533;28;20075;-49
2022/04/18 06:50:06;;;;;;;1.15;0.40;;;;;;;19.76;40.00;100621.78;4988028;28;20118;-48
2022/04/18 06:52:39;;;;;;;1.02;0.40;;;;;;;19.75;39.79;100628.09;4995684;28;20618;-47
2022/04/18 06:55:06;;;;;;;0.60;0.30;;;;;;;19.75;39.80;100625.44;4993959;28;20030;-50
2022/04/18 06:57:31;;;;;;;2.25;0.40;;;;;;;19.76;39.75;100627.06;5005068;28;20096;-46
2022/04/18 06:59:57;;;;;;;2.35;0.35;;;;;;;19.76;39.72;100618.31;4987746;28;20050;-45
2022/04/18 07:02:22;;;;;;;1.50;0.50;;;;;;;19.75;39.85;100625.44;4990868;28;20056;-46
2022/04/18 07:04:49;;;;;;;0.80;0.40;;;;;;;19.75;39.84;100614.88;4985001;28;20634;-49
2022/04/18 07:07:14;;;;;;;1.15;0.38;;;;;;;19.75;39.87;100614.06;5007482;28;20029;-50
2022/04/18 07:09:40;;;;;;;1.17;0.40;;;;;;;19.73;39.89;100603.69;4991991;28;20241;-46
2022/04/18 07:12:05;;;;;;;0.98;0.40;;;;;;;19.74;39.81;100612.44;4985656;28;20050;-48
2022/04/18 07:14:31;;;;;;;1.90;0.50;;;;;;;19.73;39.58;100616.09;4991378;28;20037;-43
2022/04/18 07:16:57;;;;;;;0.90;0.35;;;;;;;19.72;40.36;100617.91;4986992;28;20038;-49
2022/04/18 07:19:22;;;;;;;2.25;0.55;;;;;;;19.74;40.66;100609.78;4986678;28;20025;-47
2022/04/18 07:21:48;;;;;;;0.90;0.40;;;;;;;19.74;40.86;100605.31;4987523;28;20363;-49
2022/04/18 07:24:13;;;;;;;0.90;0.40;;;;;;;19.75;41.18;100604.31;4986522;28;20038;-47
2022/04/18 07:26:39;;;;;;;2.20;0.50;;;;;;;19.76;41.23;100599.81;4986692;28;20034;-47
2022/04/18 07:29:04;;;;;;;0.70;0.30;;;;;;;19.79;41.39;100610.81;4993685;28;20489;-49
2022/04/18 07:31:31;;;;;;;2.05;0.40;;;;;;;19.78;41.40;100603.09;4987088;28;20605;-46
2022/04/18 07:33:56;;;;;;;6.50;0.50;;;;;;;19.77;41.10;100599.63;4988772;28;20032;-45
2022/04/18 07:36:22;;;;;;;1.27;0.47;;;;;;;19.76;40.79;100602.47;4987408;28;20034;-45
2022/04/18 07:38:50;;;;;;;2.65;0.40;;;;;;;19.73;40.27;100603.69;4987360;28;20034;-45
2022/04/18 07:41:18;;;;;;;2.45;0.55;;;;;;;19.73;39.74;100597.59;4988237;28;20455;-47
2022/04/18 07:43:44;;;;;;;1.63;0.40;;;;;;;19.71;39.59;100596.97;4988746;28;20026;-47
2022/04/18 07:46:10;;;;;;;1.58;0.40;;;;;;;19.70;39.58;100601.44;4987357;28;20037;-46
2022/04/18 07:48:35;;;;;;;4.60;0.50;;;;;;;19.72;39.94;100601.25;4989790;28;20032;-45
2022/04/18 07:53:45;;;;;;;4.57;1.02;;;;;;;19.81;42.25;100597.41;4987443;28;20137;-49
2022/04/18 07:56:10;;;;;;;2.45;0.80;;;;;;;19.81;42.52;100594.75;4986491;28;20105;-46
2022/04/18 07:58:36;;;;;;;3.15;0.70;;;;;;;19.81;42.14;100594.75;4984290;28;20042;-46
2022/04/18 08:01:01;;;;;;;4.07;0.73;;;;;;;19.81;41.86;100592.09;4985510;28;20890;-48
2022/04/18 08:03:27;;;;;;;1.33;0.50;;;;;;;19.81;41.28;100592.09;4989104;28;20026;-56
2022/04/18 08:05:56;;;;;;;3.05;0.40;;;;;;;19.80;41.35;100586.00;4992041;28;20113;-49
2022/04/18 08:08:21;;;;;;;2.10;0.30;;;;;;;19.79;41.26;100586.22;4991822;28;20313;-48
2022/04/18 08:10:47;;;;;;;2.58;0.40;;;;;;;19.80;40.92;100586.00;4990670;28;20587;-50
2022/04/18 08:13:12;;;;;;;4.13;0.68;;;;;;;19.80;40.90;100582.56;4983280;28;20038;-46
2022/04/18 08:15:38;;;;;;;0.98;0.30;;;;;;;19.81;40.81;100584.19;4982805;28;20784;-53
2022/04/18 08:18:03;;;;;;;13.07;0.93;;;;;;;19.82;40.53;100575.22;4977055;28;20113;-48
2022/04/18 08:20:29;;;;;;;1.58;0.40;;;;;;;19.83;40.73;100585.59;4976691;28;20034;-47
2022/04/18 08:22:54;;;;;;;2.22;0.38;;;;;;;19.84;40.63;100575.84;4978757;28;20038;-49
2022/04/18 08:25:20;;;;;;;4.53;0.43;;;;;;;19.86;40.56;100573.78;4983172;28;20445;-46
2022/04/18 08:27:45;;;;;;;2.88;0.65;;;;;;;19.85;40.43;100565.03;4985453;28;20462;-49
2022/04/18 08:30:11;;;;;;;5.05;0.60;;;;;;;19.86;40.94;100563.22;4977942;28;20121;-48
2022/04/18 08:32:40;;;;;;;5.53;0.50;;;;;;;19.87;41.04;100563.00;4979533;28;20030;-55
2022/04/18 08:35:07;;;;;;;6.88;0.60;;;;;;;19.89;40.77;100562.81;4983111;28;20506;-55
2022/04/18 08:37:34;;;;;;;4.10;0.50;;;;;;;19.87;40.17;100560.34;4983651;28;20100;-51
2022/04/18 08:40:04;;;;;;;4.18;0.50;;;;;;;19.84;38.53;100554.69;4980955;28;20449;-53
2022/04/18 08:42:34;;;;;;;1.48;0.40;;;;;;;19.80;36.65;100548.19;4987410;28;20034;-51
2022/04/18 08:45:03;;;;;;;1.85;0.40;;;;;;;19.72;35.30;100558.94;4981482;28;20034;-45
2022/04/18 08:52:57;;;;;;;1.58;0.40;;;;;;;19.70;34.55;100538.00;4979271;28;20099;-49
2022/04/18 08:55:23;;;;;;;1.10;0.40;;;;;;;19.83;34.68;100535.38;4981382;28;20034;-45
2022/04/18 08:57:48;;;;;;;6.72;3.17;;;;;;;19.91;34.88;100542.25;4980384;28;20038;-47
2022/04/18 09:00:14;;;;;;;4.40;0.70;;;;;;;19.93;35.16;100548.16;4984559;28;20030;-48
2022/04/18 09:02:39;;;;;;;5.15;0.73;;;;;;;19.90;35.07;100532.69;4981605;28;20041;-47
2022/04/18 09:05:10;;;;;;;4.55;0.40;;;;;;;19.87;35.58;100525.19;4981011;28;20113;-53
2022/04/18 09:07:36;;;;;;;5.32;0.65;;;;;;;19.86;35.73;100523.53;4985796;28;20065;-50
2022/04/18 09:10:02;;;;;;;3.42;0.90;;;;;;;19.83;35.68;100524.78;4986329;28;20545;-58
2022/04/18 09:12:28;;;;;;;2.85;0.40;;;;;;;19.82;35.80;100520.53;4984201;28;20058;-45
2022/04/18 09:14:54;;;;;;;1.88;0.40;;;;;;;19.82;35.92;100517.06;4984335;28;20022;-50
2022/04/18 09:17:31;;;;;;;1.60;0.30;;;;;;;19.80;36.03;100511.16;4980295;28;20516;-41
2022/04/18 09:20:06;;;;;;;2.38;0.50;;;;;;;19.80;36.57;100511.97;4991662;28;20035;-44
2022/04/18 09:22:39;;;;;;;4.47;0.38;;;;;;;19.80;36.67;100516.47;4983303;28;20388;-54
2022/04/18 09:25:15;;;;;;;3.47;0.50;;;;;;;19.78;36.71;100514.00;4983871;28;20466;-46
2022/04/18 09:27:41;;;;;;;2.13;0.20;;;;;;;19.79;37.06;100504.25;4982534;28;20035;-51
2022/04/18 09:30:07;;;;;;;4.10;0.98;;;;;;;19.81;37.54;100510.16;4983636;28;20037;-57
2022/04/18 09:32:33;;;;;;;1.05;0.63;;;;;;;19.80;37.65;100508.53;4986263;28;20041;-55
2022/04/18 09:35:00;;;;;;;1.02;0.60;;;;;;;19.81;37.75;100504.88;4985361;28;20022;-54
2022/04/18 09:37:29;;;;;;;3.65;0.50;;;;;;;19.80;38.02;100504.06;4985985;28;20434;-45
2022/04/18 09:39:55;;;;;;;2.75;0.40;;;;;;;19.79;38.08;100498.97;4982700;28;20562;-48
2022/04/18 09:42:23;;;;;;;5.65;0.90;;;;;;;19.80;38.02;100495.31;4984351;28;20038;-49
2022/04/18 09:44:50;;;;;;;3.75;0.55;;;;;;;19.80;37.83;100492.66;4984203;28;20478;-47
2022/04/18 09:47:21;;;;;;;3.78;0.40;;;;;;;19.81;37.59;100494.28;4986681;28;20113;-47
2022/04/18 09:49:47;;;;;;;1.58;0.30;;;;;;;19.80;37.38;100493.47;4986419;28;20200;-48
2022/04/18 09:52:16;;;;;;;1.55;0.40;;;;;;;19.80;37.60;100493.47;4992564;28;20449;-52
2022/04/18 09:54:52;;;;;;;1.10;0.40;;;;;;;19.79;37.17;100491.03;4983771;28;20038;-47
2022/04/18 09:57:25;;;;;;;1.35;0.40;;;;;;;19.79;37.44;100480.47;4983447;28;20053;-48
2022/04/18 09:59:52;;;;;;;1.75;0.20;;;;;;;19.79;37.25;100483.09;4981247;28;20431;-47
2022/04/18 10:02:18;;;;;;;10.90;0.80;;;;;;;19.82;38.02;100482.69;4984832;28;20033;-46
2022/04/18 10:04:44;;;;;;;15.27;1.10;;;;;;;19.83;38.76;100468.47;4987019;28;20023;-45
2022/04/18 10:07:10;;;;;;;5.63;1.05;;;;;;;19.84;38.52;100470.09;4989397;28;20027;-46
2022/04/18 10:09:41;;;;;;;6.22;0.40;;;;;;;19.83;38.51;100474.56;4987335;28;20042;-45
2022/04/18 10:12:11;;;;;;;2.60;0.40;;;;;;;19.83;38.77;100465.81;4985480;28;20117;-45
2022/04/18 10:14:38;;;;;;;6.53;1.13;;;;;;;19.84;39.03;100456.88;4986773;28;20046;-45
2022/04/18 10:17:07;;;;;;;3.42;0.73;;;;;;;19.85;38.84;100458.47;4989170;28;20022;-44
2022/04/18 10:20:19;;;;;;;9.27;0.73;;;;;;;19.82;39.01;100454.44;4984010;28;20533;-49
2022/04/18 10:23:03;;;;;;;5.00;0.40;;;;;;;19.83;38.99;100449.97;4989163;28;20034;-45
2022/04/18 10:25:57;;;;;;;6.28;0.47;;;;;;;19.83;38.67;100442.84;4991972;28;20050;-47
2022/04/18 10:28:26;;;;;;;6.60;0.55;;;;;;;19.83;38.92;100442.03;4940401;29;20048;-46
2022/04/18 10:30:58;;;;;;;3.28;0.68;;;;;;;19.82;38.11;100429.84;4932462;29;20042;-47
2022/04/18 10:33:24;;;;;;;1.77;0.73;;;;;;;19.83;37.71;100436.75;4935970;29;20055;-46
2022/04/18 10:36:03;;;;;;;5.97;0.90;;;;;;;19.81;37.91;100433.50;4930534;29;20032;-46
2022/04/18 10:38:41;;;;;;;3.45;0.60;;;;;;;19.80;37.94;100432.69;4926855;29;20488;-46
2022/04/18 10:41:43;;;;;;;2.53;0.70;;;;;;;19.76;37.84;100423.53;4922665;29;20035;-45
2022/04/18 10:44:16;;;;;;;2.40;0.60;;;;;;;19.76;38.00;100425.34;4906942;29;20070;-45
2022/04/18 10:47:00;;;;;;;2.40;0.60;;;;;;;19.78;37.91;100418.03;4906034;29;20463;-46
2022/04/18 10:49:27;;;;;;;3.08;0.75;;;;;;;19.78;37.81;100418.03;4902754;29;20123;-48
2022/04/18 10:51:54;;;;;;;3.30;0.43;;;;;;;19.78;37.96;100418.84;4904751;29;20101;-51
2022/04/18 10:54:29;;;;;;;2.42;0.50;;;;;;;19.78;38.15;100415.41;4903691;29;20036;-45
2022/04/18 10:57:01;;;;;;;2.40;0.40;;;;;;;19.77;38.03;100411.94;4905567;29;20047;-50
2022/04/18 10:59:26;;;;;;;1.20;0.50;;;;;;;19.77;38.33;100404.00;4900505;29;20321;-48
2022/04/18 11:01:54;;;;;;;3.03;0.75;;;;;;;19.77;38.27;100406.66;4907711;29;20587;-51
2022/04/18 11:04:27;;;;;;;2.25;0.40;;;;;;;19.76;38.09;100394.44;4918729;29;20608;-49
2022/04/18 11:07:01;;;;;;;2.15;0.57;;;;;;;19.77;38.07;100400.56;4930358;29;20145;-46
2022/04/18 11:09:27;;;;;;;1.25;0.40;;;;;;;19.77;37.94;100389.97;4941304;28;20511;-46
2022/04/18 11:12:00;;;;;;;1.30;0.40;;;;;;;19.76;38.11;100391.81;4946125;29;20101;-46
2022/04/18 11:14:43;;;;;;;2.70;0.50;;;;;;;19.75;38.23;100389.38;4944203;28;20520;-48
2022/04/18 11:17:11;;;;;;;4.03;0.50;;;;;;;19.74;38.00;100393.84;4948444;28;20242;-47
2022/04/18 11:19:37;;;;;;;1.92;0.40;;;;;;;19.74;38.12;100388.56;4988070;28;20054;-45
2022/04/18 11:22:05;;;;;;;2.25;0.40;;;;;;;19.74;37.93;100393.84;4986310;28;20026;-47
2022/04/18 11:24:40;;;;;;;1.88;0.47;;;;;;;19.72;37.84;100387.94;4985481;28;20092;-47
2022/04/18 11:27:16;;;;;;;2.78;0.60;;;;;;;19.71;38.15;100385.50;4986048;28;20060;-50
2022/04/18 11:29:50;;;;;;;3.70;0.40;;;;;;;19.72;38.03;100381.84;4985988;28;20395;-45
2022/04/18 11:32:18;;;;;;;2.38;0.40;;;;;;;19.72;37.88;100379.22;4981184;28;20375;-45
2022/04/18 11:34:47;;;;;;;1.60;0.50;;;;;;;19.73;37.96;100367.63;4987302;28;20031;-47
2022/04/18 11:37:36;;;;;;;1.88;0.40;;;;;;;19.69;37.82;100372.50;4986310;28;20030;-46
2022/04/18 11:40:15;;;;;;;1.40;0.43;;;;;;;19.67;37.82;100363.97;4987232;28;20056;-48